createdAt,value
2023-01-11T00:01:55.311Z,15.48
2023-01-11T00:03:58.212Z,16.73
2023-01-11T00:06:01.614Z,15.27
2023-01-11T00:08:06.407Z,15.50
2023-01-11T00:10:10.490Z,14.95
2023-01-11T00:12:14.611Z,15.30
2023-01-11T00:14:17.572Z,15.00
2023-01-11T00:16:20.416Z,14.50
2023-01-11T00:18:23.449Z,15.38
2023-01-11T00:20:26.456Z,15.25
2023-01-11T00:22:29.316Z,15.02
2023-01-11T00:24:33.672Z,13.43
2023-01-11T00:26:36.561Z,14.85
2023-01-11T00:28:39.502Z,14.23
2023-01-11T00:30:42.459Z,14.30
2023-01-11T00:32:45.318Z,13.30
2023-01-11T00:34:48.250Z,14.55
2023-01-11T00:36:52.080Z,14.30
2023-01-11T00:38:55.771Z,15.05
2023-01-11T00:41:20.052Z,16.88
2023-01-11T00:43:41.611Z,16.25
2023-01-11T00:46:03.390Z,16.23
2023-01-11T00:48:07.487Z,14.98
2023-01-11T00:50:11.320Z,14.82
2023-01-11T00:52:14.294Z,14.65
2023-01-11T00:54:17.250Z,13.80
2023-01-11T00:56:21.809Z,13.15
2023-01-11T00:58:24.656Z,12.63
2023-01-11T01:00:28.653Z,12.98
2023-01-11T01:02:32.832Z,14.35
2023-01-11T01:04:35.970Z,14.35
2023-01-11T01:06:38.864Z,14.63
2023-01-11T01:08:41.781Z,15.25
2023-01-11T01:10:44.690Z,16.05
2023-01-11T01:13:07.788Z,15.25
2023-01-11T01:15:11.567Z,14.68
2023-01-11T01:17:14.531Z,14.68
2023-01-11T01:19:17.530Z,14.30
2023-01-11T01:21:20.607Z,13.60
2023-01-11T01:23:23.514Z,12.63
2023-01-11T01:25:26.362Z,13.20
2023-01-11T01:27:29.183Z,14.68
2023-01-11T01:29:33.643Z,14.23
2023-01-11T01:31:36.552Z,12.77
2023-01-11T01:33:39.980Z,12.93
2023-01-11T01:35:42.811Z,12.73
2023-01-11T01:37:45.810Z,12.52
2023-01-11T01:39:48.708Z,11.82
2023-01-11T01:41:51.555Z,12.27
2023-01-11T01:43:57.739Z,12.40
2023-01-11T01:46:02.302Z,13.32
2023-01-11T01:48:07.093Z,11.82
2023-01-11T01:50:14.213Z,12.45
2023-01-11T01:52:17.579Z,12.15
2023-01-11T01:54:23.950Z,11.35
2023-01-11T01:56:30.955Z,12.52
2023-01-11T01:58:36.880Z,11.73
2023-01-11T02:00:40.691Z,11.32
2023-01-11T02:02:45.516Z,10.77
2023-01-11T02:04:48.915Z,12.60
2023-01-11T02:06:55.691Z,12.10
2023-01-11T02:09:02.648Z,11.52
2023-01-11T02:11:25.693Z,12.15
2023-01-11T02:13:29.010Z,11.93
2023-01-11T02:15:32.172Z,11.70
2023-01-11T02:17:35.013Z,12.27
2023-01-11T02:19:52.678Z,11.88
2023-01-11T02:22:22.601Z,11.77
2023-01-11T02:24:41.790Z,10.75
2023-01-11T02:27:16.041Z,12.68
2023-01-11T02:29:29.581Z,11.73
2023-01-11T02:31:35.689Z,12.35
2023-01-11T02:33:43.660Z,11.50
2023-01-11T02:35:52.995Z,11.10
2023-01-11T02:38:03.897Z,11.98
2023-01-11T02:40:12.172Z,12.55
2023-01-11T02:42:40.510Z,11.98
2023-01-11T02:45:03.251Z,11.00
2023-01-11T02:47:09.369Z,11.32
2023-01-11T02:49:17.492Z,12.68
2023-01-11T02:51:24.569Z,11.55
2023-01-11T02:53:31.612Z,11.95
2023-01-11T02:55:38.781Z,12.40
2023-01-11T02:57:43.090Z,11.55
2023-01-11T02:59:49.450Z,12.10
2023-01-11T03:01:53.682Z,11.68
2023-01-11T03:03:56.789Z,12.05
2023-01-11T03:06:04.025Z,12.13
2023-01-11T03:08:28.031Z,11.32
2023-01-11T03:10:39.010Z,11.75
2023-01-11T03:12:57.532Z,11.80
2023-01-11T03:15:07.032Z,11.30
2023-01-11T03:17:18.889Z,12.00
2023-01-11T03:19:27.932Z,12.05
2023-01-11T03:21:50.776Z,12.55
2023-01-11T03:24:01.760Z,11.32
2023-01-11T03:26:12.294Z,11.52
2023-01-11T03:28:19.210Z,11.05
2023-01-11T03:30:29.009Z,11.48
2023-01-11T03:32:36.734Z,11.48
2023-01-11T03:34:46.330Z,11.55
2023-01-11T03:36:51.650Z,12.00
2023-01-11T03:38:57.049Z,12.70
2023-01-11T03:41:04.933Z,11.80
2023-01-11T03:43:12.846Z,11.75
2023-01-11T03:45:16.075Z,11.80
2023-01-11T03:47:24.052Z,12.50
2023-01-11T03:49:30.171Z,11.73
2023-01-11T03:51:35.923Z,11.65
2023-01-11T03:53:40.366Z,12.43
2023-01-11T03:55:45.358Z,11.25
2023-01-11T03:57:51.780Z,10.82
2023-01-11T03:59:54.796Z,11.07
2023-01-11T04:01:57.983Z,11.15
2023-01-11T04:04:02.381Z,11.35
2023-01-11T04:06:05.904Z,11.55
2023-01-11T04:08:08.853Z,11.93
2023-01-11T04:10:12.361Z,12.35
2023-01-11T04:12:15.330Z,13.07
2023-01-11T04:14:18.112Z,12.18
2023-01-11T04:16:21.136Z,13.15
2023-01-11T04:18:24.090Z,10.68
2023-01-11T04:20:28.528Z,11.65
2023-01-11T04:22:31.490Z,12.05
2023-01-11T04:24:34.500Z,11.43
2023-01-11T04:26:37.498Z,11.32
2023-01-11T04:28:40.490Z,13.13
2023-01-11T04:30:43.666Z,11.82
2023-01-11T04:32:46.621Z,11.77
2023-01-11T04:34:50.885Z,11.63
2023-01-11T04:36:55.417Z,11.27
2023-01-11T04:38:58.528Z,10.68
2023-01-11T04:41:23.366Z,10.73
2023-01-11T04:43:26.370Z,10.80
2023-01-11T04:45:29.838Z,11.05
2023-01-11T04:47:33.232Z,11.90
2023-01-11T04:49:36.154Z,12.10
2023-01-11T04:51:39.051Z,11.85
2023-01-11T04:53:43.631Z,12.43
2023-01-11T04:55:46.891Z,12.07
2023-01-11T04:57:49.807Z,11.55
2023-01-11T04:59:52.720Z,11.77
2023-01-11T05:01:55.631Z,12.15
2023-01-11T05:03:58.478Z,11.85
2023-01-11T05:06:02.281Z,12.57
2023-01-11T05:08:05.171Z,10.73
2023-01-11T05:10:10.972Z,11.90
2023-01-11T05:12:13.856Z,11.15
2023-01-11T05:14:17.208Z,12.23
2023-01-11T05:16:21.655Z,12.00
2023-01-11T05:18:24.651Z,11.63
2023-01-11T05:20:27.637Z,11.90
2023-01-11T05:22:30.550Z,11.13
2023-01-11T05:24:33.497Z,10.38
2023-01-11T05:26:39.171Z,11.90
2023-01-11T05:30:44.700Z,10.73
2023-01-11T05:32:47.547Z,11.40
2023-01-11T05:34:50.491Z,10.30
2023-01-11T05:36:53.454Z,11.00
2023-01-11T05:38:57.217Z,11.07
2023-01-11T05:41:01.939Z,10.43
2023-01-11T05:43:06.455Z,11.23
2023-01-11T05:45:28.605Z,11.43
2023-01-11T05:47:31.700Z,11.80
2023-01-11T05:49:34.851Z,10.40
2023-01-11T05:51:40.942Z,12.40
2023-01-11T05:53:43.991Z,12.50
2023-01-11T05:55:53.968Z,12.32
2023-01-11T05:57:56.852Z,12.77
2023-01-11T06:00:01.229Z,12.38
2023-01-11T06:02:09.368Z,13.20
2023-01-11T06:04:12.336Z,12.73
2023-01-11T06:06:16.166Z,11.82
2023-01-11T06:08:20.051Z,11.95
2023-01-11T06:10:23.010Z,11.70
2023-01-11T06:12:25.849Z,11.50
2023-01-11T06:14:28.722Z,13.55
2023-01-11T06:16:33.193Z,13.00
2023-01-11T06:18:37.720Z,12.80
2023-01-11T06:20:40.781Z,12.40
2023-01-11T06:22:43.653Z,12.02
2023-01-11T06:24:46.612Z,13.80
2023-01-11T06:26:49.510Z,12.73
2023-01-11T06:28:52.420Z,12.27
2023-01-11T06:30:56.201Z,12.30
2023-01-11T06:33:06.210Z,12.20
2023-01-11T06:35:09.542Z,12.52
2023-01-11T06:37:12.491Z,12.52
2023-01-11T06:39:15.423Z,13.90
2023-01-11T06:41:18.390Z,14.05
2023-01-11T06:43:22.051Z,13.85
2023-01-11T06:45:25.010Z,14.30
2023-01-11T06:47:27.969Z,14.38
2023-01-11T06:49:32.422Z,15.23
2023-01-11T06:51:35.414Z,15.35
2023-01-11T06:53:39.055Z,14.98
2023-01-11T06:55:42.207Z,14.95
2023-01-11T06:57:45.121Z,16.48
2023-01-11T06:59:48.152Z,17.50
2023-01-11T07:01:51.368Z,16.67
2023-01-11T07:03:54.251Z,17.33
2023-01-11T07:05:59.170Z,17.38
2023-01-11T07:08:02.652Z,17.70
2023-01-11T07:10:08.210Z,17.98
2023-01-11T07:12:11.094Z,17.73
2023-01-11T07:14:20.088Z,19.50
2023-01-11T07:16:22.994Z,18.73
2023-01-11T07:18:26.108Z,20.52
2023-01-11T07:20:29.729Z,21.65
2023-01-11T07:22:36.451Z,19.48
2023-01-11T07:24:39.411Z,22.83
2023-01-11T07:26:42.331Z,21.70
2023-01-11T07:28:45.250Z,22.20
2023-01-11T07:30:58.282Z,21.30
2023-01-11T07:33:02.376Z,22.20
2023-01-11T07:35:06.048Z,22.02
2023-01-11T07:37:28.033Z,23.25
2023-01-11T07:39:43.172Z,21.63
2023-01-11T07:42:05.194Z,24.70
2023-01-11T07:44:08.134Z,23.63
2023-01-11T07:46:11.111Z,23.42
2023-01-11T07:48:15.042Z,23.80
2023-01-11T07:50:18.130Z,24.10
2023-01-11T07:52:21.210Z,22.60
2023-01-11T07:54:25.185Z,23.40
2023-01-11T07:56:29.810Z,23.83
2023-01-11T07:58:32.891Z,22.98
2023-01-11T08:00:35.993Z,23.42
2023-01-11T08:02:39.020Z,23.77
2023-01-11T08:04:42.211Z,22.35
2023-01-11T08:06:45.110Z,22.90
2023-01-11T08:08:48.010Z,23.88
2023-01-11T08:11:09.872Z,24.23
2023-01-11T08:13:33.350Z,24.23
2023-01-11T08:15:42.813Z,22.45
2023-01-11T08:17:45.822Z,23.90
2023-01-11T08:19:48.734Z,23.55
2023-01-11T08:21:51.911Z,24.65
2023-01-11T08:23:54.941Z,24.67
2023-01-11T08:25:58.330Z,23.88
2023-01-11T08:28:02.474Z,24.75
2023-01-11T08:30:08.511Z,24.50
2023-01-11T08:32:11.531Z,24.65
2023-01-11T08:34:14.451Z,24.55
2023-01-11T08:36:17.423Z,26.77
2023-01-11T08:38:20.371Z,25.27
2023-01-11T08:40:24.398Z,24.77
2023-01-11T08:42:27.700Z,25.23
2023-01-11T08:44:34.728Z,25.55
2023-01-11T08:46:39.599Z,24.58
2023-01-11T08:48:42.691Z,24.60
2023-01-11T08:50:45.610Z,25.05
2023-01-11T08:52:49.931Z,25.23
2023-01-11T08:54:52.906Z,25.65
2023-01-11T08:56:55.862Z,26.20
2023-01-11T08:58:58.925Z,25.48
2023-01-11T09:01:04.178Z,24.58
2023-01-11T09:03:09.105Z,26.23
2023-01-11T09:05:12.106Z,27.00
2023-01-11T09:07:14.961Z,25.83
2023-01-11T09:09:17.896Z,24.90
2023-01-11T09:11:39.143Z,25.50
2023-01-11T09:13:41.989Z,24.02
2023-01-11T09:15:47.072Z,23.65
2023-01-11T09:17:50.331Z,24.00
2023-01-11T09:19:54.730Z,24.85
2023-01-11T09:21:58.651Z,24.63
2023-01-11T09:24:01.728Z,23.95
2023-01-11T09:26:04.581Z,25.27
2023-01-11T09:28:07.626Z,24.70
2023-01-11T09:30:11.841Z,25.17
2023-01-11T09:32:14.936Z,26.15
2023-01-11T09:34:18.141Z,25.70
2023-01-11T09:36:23.891Z,25.67
2023-01-11T09:40:42.574Z,23.08
2023-01-11T09:42:47.493Z,22.75
2023-01-11T09:44:52.592Z,22.55
2023-01-11T09:47:10.981Z,23.13
2023-01-11T09:49:17.213Z,22.30
2023-01-11T09:51:21.612Z,23.38
2023-01-11T09:53:32.621Z,22.10
2023-01-11T09:55:38.097Z,21.13
2023-01-11T10:00:10.839Z,21.55
2023-01-11T10:02:23.820Z,19.67
2023-01-11T10:04:50.499Z,21.35
2023-01-11T10:18:29.796Z,17.95
2023-01-11T10:18:39.892Z,16.50
2023-01-11T10:19:41.379Z,16.60
2023-01-11T10:21:48.251Z,16.13
2023-01-11T10:23:55.347Z,15.77
2023-01-11T10:26:03.422Z,14.40
2023-01-11T10:28:08.604Z,15.15
2023-01-11T10:30:34.834Z,14.75
2023-01-11T10:32:54.499Z,13.43
2023-01-11T10:35:13.251Z,14.45
2023-01-11T10:37:37.182Z,14.05
2023-01-11T10:40:04.711Z,11.68
2023-01-11T10:42:12.076Z,11.23
2023-01-11T10:44:19.694Z,9.07
2023-01-11T10:46:24.667Z,10.32
2023-01-11T10:48:31.012Z,10.50
2023-01-11T10:50:38.962Z,9.57
2023-01-11T10:52:48.467Z,9.48
2023-01-11T10:54:56.321Z,9.55
2023-01-11T10:57:09.306Z,8.38
2023-01-11T10:59:27.574Z,8.77
2023-01-11T11:01:45.528Z,6.93
2023-01-11T11:04:09.011Z,5.53
2023-01-11T11:06:18.016Z,6.05
2023-01-11T11:08:27.382Z,5.50
2023-01-11T11:10:33.648Z,7.90
2023-01-11T11:12:39.213Z,3.83
2023-01-11T11:14:47.225Z,5.45
2023-01-11T11:16:57.974Z,5.63
2023-01-11T11:19:01.013Z,5.90
2023-01-11T11:21:07.343Z,6.10
2023-01-11T11:23:14.471Z,5.15
2023-01-11T11:25:21.372Z,4.95
2023-01-11T11:27:28.528Z,4.93
2023-01-11T11:29:31.494Z,4.43
2023-01-11T11:31:36.493Z,4.20
2023-01-11T11:33:40.431Z,4.47
2023-01-11T11:35:46.092Z,3.83
2023-01-11T11:37:49.008Z,4.18
2023-01-11T11:39:52.742Z,3.75
2023-01-11T11:41:56.930Z,3.95
2023-01-11T11:44:15.897Z,5.50
2023-01-11T11:46:25.749Z,4.60
2023-01-11T11:48:29.933Z,4.20
2023-01-11T11:50:48.616Z,4.80
2023-01-11T11:52:52.908Z,5.40
2023-01-11T11:54:57.628Z,2.47
2023-01-11T11:57:12.811Z,3.78
2023-01-11T11:59:19.890Z,7.27
2023-01-11T12:01:25.536Z,3.67
2023-01-11T12:03:30.971Z,5.45
2023-01-11T12:05:33.890Z,5.30
2023-01-11T12:07:49.738Z,6.45
2023-01-11T12:10:00.538Z,3.80
2023-01-11T12:12:04.505Z,3.75
2023-01-11T12:14:19.740Z,3.60
2023-01-11T12:16:23.570Z,3.90
2023-01-11T12:18:28.248Z,4.10
2023-01-11T12:20:34.710Z,3.07
2023-01-11T12:22:37.561Z,3.22
2023-01-11T12:24:40.605Z,3.28
2023-01-11T12:26:51.381Z,3.63
2023-01-11T12:29:31.291Z,3.13
2023-01-11T12:31:44.477Z,2.97
2023-01-11T12:33:51.820Z,3.00
2023-01-11T12:35:59.181Z,3.20
2023-01-11T12:38:24.596Z,3.15
2023-01-11T12:40:35.011Z,2.95
2023-01-11T12:42:57.011Z,3.00
2023-01-11T12:45:12.290Z,3.03
2023-01-11T12:47:32.773Z,2.33
2023-01-11T12:49:44.538Z,3.00
2023-01-11T12:52:16.246Z,3.05
2023-01-11T12:54:42.050Z,3.00
2023-01-11T12:56:55.810Z,2.42
2023-01-11T12:59:03.460Z,2.78
2023-01-11T13:01:28.427Z,2.67
2023-01-11T13:03:50.400Z,3.05
2023-01-11T13:05:58.478Z,3.20
2023-01-11T13:08:08.494Z,3.22
2023-01-11T13:10:22.370Z,3.20
2023-01-11T13:12:29.530Z,2.90
2023-01-11T13:14:47.028Z,2.30
2023-01-11T13:16:55.471Z,3.30
2023-01-11T13:19:02.670Z,5.35
2023-01-11T13:21:13.051Z,13.90
2023-01-11T13:23:19.971Z,6.85
2023-01-11T13:25:25.091Z,40.30
2023-01-11T13:27:31.693Z,4.15
2023-01-11T13:29:37.452Z,31.27
2023-01-11T13:31:41.730Z,10.90
2023-01-11T13:33:50.175Z,49.83
2023-01-11T13:35:57.156Z,29.77
2023-01-11T13:38:04.425Z,11.95
2023-01-11T13:40:12.554Z,7.05
2023-01-11T13:42:18.241Z,7.95
2023-01-11T13:46:41.951Z,6.45
2023-01-11T13:48:50.632Z,8.95
2023-01-11T13:50:57.249Z,13.57
2023-01-11T13:53:06.394Z,9.75
2023-01-11T13:55:20.773Z,11.90
2023-01-11T13:57:33.891Z,8.70
2023-01-11T13:59:40.395Z,6.35
2023-01-11T14:01:47.169Z,6.70
2023-01-11T14:03:54.268Z,6.13
2023-01-11T14:06:06.609Z,5.32
2023-01-11T14:08:22.974Z,9.48
2023-01-11T14:10:34.937Z,10.48
2023-01-11T14:12:49.730Z,11.48
2023-01-11T14:15:13.098Z,14.85
2023-01-11T14:17:30.390Z,7.03
2023-01-11T14:19:40.870Z,8.90
2023-01-11T14:22:04.520Z,11.63
2023-01-11T14:24:08.391Z,17.92
2023-01-11T14:26:56.029Z,5.95
2023-01-11T14:29:07.974Z,4.78
2023-01-11T14:31:32.309Z,4.32
2023-01-11T14:34:04.139Z,4.47
2023-01-11T14:36:50.849Z,4.78
2023-01-11T14:39:41.370Z,4.57
2023-01-11T14:42:31.217Z,4.68
2023-01-11T14:44:53.565Z,7.00
2023-01-11T14:47:07.011Z,5.20
2023-01-11T14:49:18.889Z,4.80
2023-01-11T14:51:33.175Z,4.68
2023-01-11T14:53:40.331Z,5.40
2023-01-11T14:55:46.890Z,5.28
2023-01-11T14:58:21.689Z,5.68
2023-01-11T15:00:58.091Z,11.60
2023-01-11T15:03:39.567Z,14.27
2023-01-11T15:05:47.451Z,10.75
2023-01-11T15:07:51.867Z,6.18
2023-01-11T15:09:54.989Z,5.22
2023-01-11T15:12:11.554Z,5.22
2023-01-11T15:14:27.723Z,10.07
2023-01-11T15:18:52.348Z,6.78
2023-01-11T15:20:57.570Z,5.95
2023-01-11T15:23:04.866Z,8.30
2023-01-11T15:25:20.569Z,9.63
2023-01-11T15:27:25.414Z,7.10
2023-01-11T15:29:30.782Z,6.20
2023-01-11T15:31:44.361Z,6.57
2023-01-11T15:33:48.624Z,8.38
2023-01-11T15:36:11.761Z,8.60
2023-01-11T15:38:19.451Z,6.63
2023-01-11T15:40:26.379Z,6.55
2023-01-11T15:43:07.650Z,6.65
2023-01-11T15:45:29.200Z,6.43
2023-01-11T15:47:49.580Z,6.07
2023-01-11T15:50:18.164Z,7.38
2023-01-11T15:53:03.142Z,7.70
2023-01-11T15:55:29.229Z,46.42
2023-01-11T15:57:59.981Z,29.63
2023-01-11T16:00:32.907Z,12.07
2023-01-11T16:02:52.700Z,8.52
2023-01-11T16:05:00.981Z,6.82
2023-01-11T16:07:08.707Z,11.18
2023-01-11T16:09:41.571Z,7.20
2023-01-11T16:11:50.732Z,8.18
2023-01-11T16:14:05.261Z,8.70
2023-01-11T16:16:16.271Z,6.93
2023-01-11T16:18:22.272Z,8.55
2023-01-11T16:20:28.140Z,8.05
2023-01-11T16:22:31.403Z,7.15
2023-01-11T16:24:37.341Z,6.00
2023-01-11T16:26:41.435Z,7.60
2023-01-11T16:28:57.801Z,6.78
2023-01-11T16:31:02.555Z,6.75
2023-01-11T16:33:16.101Z,6.10
2023-01-11T16:35:20.568Z,6.15
2023-01-11T16:37:29.375Z,6.05
2023-01-11T16:39:33.887Z,5.78
2023-01-11T16:41:41.380Z,6.40
2023-01-11T16:43:49.972Z,6.63
2023-01-11T16:45:55.094Z,6.40
2023-01-11T16:48:06.051Z,8.23
2023-01-11T16:50:20.950Z,12.90
2023-01-11T16:52:48.269Z,19.27
2023-01-11T16:54:51.502Z,7.40
2023-01-11T16:56:54.859Z,9.32
2023-01-11T16:59:07.260Z,9.68
2023-01-11T17:01:13.244Z,14.02
2023-01-11T17:03:24.513Z,7.05
2023-01-11T17:05:27.523Z,8.10
2023-01-11T17:07:30.874Z,8.27
2023-01-11T17:09:33.740Z,7.70
2023-01-11T17:11:37.971Z,8.75
2023-01-11T17:14:12.199Z,6.82
2023-01-11T17:16:17.240Z,6.95
2023-01-11T17:18:20.201Z,6.30
2023-01-11T17:20:30.405Z,7.18
2023-01-11T17:22:35.626Z,7.40
2023-01-11T17:24:50.221Z,4.18
2023-01-11T17:26:55.232Z,5.25
2023-01-11T17:28:59.763Z,6.82
2023-01-11T17:31:02.984Z,6.43
2023-01-11T17:33:08.601Z,5.90
2023-01-11T17:35:16.918Z,6.18
2023-01-11T17:37:20.081Z,5.50
2023-01-11T17:39:27.988Z,5.03
2023-01-11T17:41:49.922Z,5.78
2023-01-11T17:44:11.302Z,7.00
2023-01-11T17:46:17.486Z,6.85
2023-01-11T17:48:24.141Z,5.82
2023-01-11T17:50:29.437Z,6.15
2023-01-11T17:52:43.774Z,6.20
2023-01-11T17:55:01.108Z,5.32
2023-01-11T17:57:04.099Z,6.80
2023-01-11T17:59:18.992Z,5.85
2023-01-11T18:01:23.012Z,4.78
2023-01-11T18:03:27.332Z,4.25
2023-01-11T18:05:30.278Z,4.75
2023-01-11T18:07:33.148Z,6.55
2023-01-11T18:09:40.062Z,5.38
2023-01-11T18:11:43.338Z,3.30
2023-01-11T18:13:46.097Z,5.45
2023-01-11T18:15:49.038Z,5.40
2023-01-11T18:17:57.061Z,5.22
2023-01-11T18:20:02.599Z,5.32
2023-01-11T18:22:26.722Z,5.30
2023-01-11T18:24:34.270Z,4.95
2023-01-11T18:26:38.162Z,5.43
2023-01-11T18:28:41.032Z,5.20
2023-01-11T18:30:47.604Z,6.88
2023-01-11T18:32:50.413Z,6.13
2023-01-11T18:34:54.781Z,29.92
2023-01-11T18:37:00.118Z,8.88
2023-01-11T18:39:02.979Z,29.52
2023-01-11T18:41:25.781Z,17.02
2023-01-11T18:43:30.005Z,15.13
2023-01-11T18:45:33.388Z,8.38
2023-01-11T18:47:36.256Z,9.10
2023-01-11T18:49:39.216Z,5.53
2023-01-11T18:51:45.396Z,10.43
2023-01-11T18:53:49.833Z,10.18
2023-01-11T18:55:52.813Z,10.05
2023-01-11T18:57:57.501Z,7.30
2023-01-11T19:00:01.132Z,7.15
2023-01-11T19:02:17.244Z,6.43
2023-01-11T19:04:20.581Z,6.40
2023-01-11T19:06:23.550Z,5.20
2023-01-11T19:08:26.421Z,7.18
2023-01-11T19:10:30.813Z,16.48
2023-01-11T19:12:33.668Z,22.30
2023-01-11T19:14:36.736Z,12.20
2023-01-11T19:16:39.540Z,8.95
2023-01-11T19:18:42.431Z,15.93
2023-01-11T19:20:45.331Z,16.60
2023-01-11T19:22:48.262Z,33.35
2023-01-11T19:24:51.131Z,54.05
2023-01-11T19:26:56.085Z,93.95
2023-01-11T19:28:59.050Z,35.00
2023-01-11T19:31:06.774Z,26.05
2023-01-11T19:33:09.580Z,32.80
2023-01-11T19:35:12.607Z,25.80
2023-01-11T19:37:15.490Z,50.47
2023-01-11T19:39:18.419Z,41.25
2023-01-11T19:41:21.341Z,19.48
2023-01-11T19:43:25.773Z,15.20
2023-01-11T19:45:28.650Z,6.15
2023-01-11T19:47:31.854Z,14.55
2023-01-11T19:49:34.931Z,7.60
2023-01-11T19:51:37.726Z,21.08
2023-01-11T19:53:40.564Z,6.70
2023-01-11T19:55:43.328Z,8.07
2023-01-11T19:57:46.051Z,21.35
2023-01-11T19:59:50.890Z,16.58
2023-01-11T20:01:53.544Z,28.90
2023-01-11T20:03:56.434Z,8.52
2023-01-11T20:06:05.008Z,17.08
2023-01-11T20:08:07.807Z,9.00
2023-01-11T20:10:11.307Z,8.95
2023-01-11T20:12:16.377Z,10.13
2023-01-11T20:14:19.389Z,15.02
2023-01-11T20:16:24.767Z,7.45
2023-01-11T20:18:27.687Z,11.07
2023-01-11T20:20:30.569Z,10.63
2023-01-11T20:22:33.887Z,8.05
2023-01-11T20:24:36.727Z,7.75
2023-01-11T20:26:39.764Z,4.93
2023-01-11T20:28:43.267Z,9.77
2023-01-11T20:30:45.978Z,8.00
2023-01-11T20:32:50.322Z,9.25
2023-01-11T20:34:54.107Z,7.53
2023-01-11T20:36:57.090Z,10.43
2023-01-11T20:39:00.050Z,8.32
2023-01-11T20:41:08.497Z,6.95
2023-01-11T20:43:11.573Z,4.78
2023-01-11T20:45:14.570Z,4.35
2023-01-11T20:47:17.424Z,4.95
2023-01-11T20:49:22.858Z,9.70
2023-01-11T20:51:25.894Z,5.28
2023-01-11T20:53:28.960Z,4.15
2023-01-11T20:55:31.812Z,2.78
2023-01-11T20:57:34.690Z,5.38
2023-01-11T20:59:37.611Z,11.55
2023-01-11T21:01:40.791Z,6.20
2023-01-11T21:03:43.612Z,5.45
2023-01-11T21:05:49.099Z,5.97
2023-01-11T21:07:53.293Z,5.15
2023-01-11T21:09:56.212Z,3.83
2023-01-11T21:11:59.299Z,4.97
2023-01-11T21:14:04.476Z,4.60
2023-01-11T21:16:08.994Z,4.03
2023-01-11T21:18:11.989Z,4.15
2023-01-11T21:20:14.971Z,4.03
2023-01-11T21:22:19.451Z,3.97
2023-01-11T21:24:22.309Z,3.92
2023-01-11T21:26:26.077Z,3.97
2023-01-11T21:28:28.948Z,4.28
2023-01-11T21:30:31.816Z,4.13
2023-01-11T21:32:34.650Z,3.90
2023-01-11T21:34:37.610Z,4.45
2023-01-11T21:36:40.916Z,3.88
2023-01-11T21:38:45.410Z,4.72
2023-01-11T21:40:48.215Z,4.80
2023-01-11T21:42:51.256Z,4.63
2023-01-11T21:44:54.091Z,3.70
2023-01-11T21:46:57.339Z,3.72
2023-01-11T21:49:00.584Z,4.32
2023-01-11T21:51:03.809Z,4.07
2023-01-11T21:53:06.697Z,3.70
2023-01-11T21:55:11.369Z,3.97
2023-01-11T21:57:14.209Z,4.78
2023-01-11T21:59:17.611Z,3.63
2023-01-11T22:01:24.055Z,3.60
2023-01-11T22:03:27.940Z,4.25
2023-01-11T22:05:32.090Z,4.43
2023-01-11T22:07:36.713Z,4.15
2023-01-11T22:09:46.624Z,3.72
2023-01-11T22:11:57.771Z,4.22
2023-01-11T22:14:02.748Z,4.35
2023-01-11T22:16:07.751Z,3.70
2023-01-11T22:18:12.075Z,3.95
2023-01-11T22:20:17.826Z,4.32
2023-01-11T22:24:23.270Z,4.47
2023-01-11T22:26:27.175Z,4.50
2023-01-11T22:28:31.732Z,3.92
2023-01-11T22:30:34.591Z,4.55
2023-01-11T22:32:37.853Z,4.38
2023-01-11T22:34:40.874Z,4.55
2023-01-11T22:36:44.516Z,4.70
2023-01-11T22:38:47.410Z,4.80
2023-01-11T22:40:50.320Z,5.32
2023-01-11T22:42:53.110Z,4.70
2023-01-11T22:44:58.705Z,4.63
2023-01-11T22:49:06.684Z,4.70
2023-01-11T22:51:10.654Z,4.80
2023-01-11T22:53:13.531Z,5.15
2023-01-11T22:55:16.421Z,5.05
2023-01-11T22:57:19.330Z,4.82
2023-01-11T22:59:22.133Z,5.63
2023-01-11T23:01:27.836Z,4.82
2023-01-11T23:03:30.690Z,4.97
2023-01-11T23:05:33.816Z,4.97
2023-01-11T23:07:36.863Z,3.50
2023-01-11T23:09:39.771Z,5.35
2023-01-11T23:12:01.131Z,5.53
2023-01-11T23:14:05.270Z,5.80
2023-01-11T23:16:08.593Z,5.10
2023-01-11T23:18:13.150Z,5.18
2023-01-11T23:20:16.274Z,6.00
2023-01-11T23:22:19.128Z,5.03
2023-01-11T23:24:22.554Z,5.35
2023-01-11T23:26:25.489Z,5.63
2023-01-11T23:28:30.187Z,5.53
2023-01-11T23:30:33.131Z,4.68
2023-01-11T23:32:35.973Z,4.93
2023-01-11T23:34:40.430Z,5.10
2023-01-11T23:36:43.815Z,5.03
2023-01-11T23:38:47.050Z,4.93
2023-01-11T23:41:08.250Z,5.13
2023-01-11T23:43:11.192Z,4.57
2023-01-11T23:45:14.235Z,4.97
2023-01-11T23:47:25.301Z,4.43
2023-01-11T23:49:28.963Z,4.53
2023-01-11T23:51:33.830Z,4.05
2023-01-11T23:53:36.712Z,5.47
2023-01-11T23:55:40.524Z,4.38
2023-01-11T23:58:03.252Z,4.63
